createdAt,value
2018-12-02T00:01:01.339Z,21.26
2018-12-02T00:03:28.981Z,21.33
2018-12-02T00:05:56.634Z,21.31
2018-12-02T00:08:24.254Z,21.34
2018-12-02T00:10:51.896Z,21.36
2018-12-02T00:13:19.610Z,21.33
2018-12-02T00:15:47.675Z,21.29
2018-12-02T00:18:15.315Z,21.25
2018-12-02T00:20:42.981Z,21.22
2018-12-02T00:23:10.735Z,21.20
2018-12-02T00:25:38.370Z,21.24
2018-12-02T00:28:06.653Z,21.21
2018-12-02T00:30:34.365Z,21.19
2018-12-02T00:33:01.995Z,21.25
2018-12-02T00:35:29.628Z,21.20
2018-12-02T00:37:57.824Z,21.20
2018-12-02T00:40:25.464Z,21.20
2018-12-02T00:42:59.414Z,21.24
2018-12-02T00:45:27.609Z,21.24
2018-12-02T00:47:55.250Z,21.23
2018-12-02T00:50:22.883Z,21.18
2018-12-02T00:52:51.284Z,21.19
2018-12-02T00:55:22.339Z,21.18
2018-12-02T00:57:49.972Z,21.17
2018-12-02T01:00:17.607Z,21.19
2018-12-02T01:02:45.720Z,21.21
2018-12-02T01:05:14.824Z,21.21
2018-12-02T01:07:42.460Z,21.21
2018-12-02T01:10:10.854Z,21.18
2018-12-02T01:12:38.471Z,21.19
2018-12-02T01:15:07.195Z,21.19
2018-12-02T01:17:34.810Z,21.17
2018-12-02T01:20:02.434Z,21.16
2018-12-02T01:22:30.068Z,21.12
2018-12-02T01:24:57.711Z,21.17
2018-12-02T01:27:25.351Z,21.15
2018-12-02T01:29:52.978Z,21.18
2018-12-02T01:32:20.632Z,21.16
2018-12-02T01:34:48.268Z,21.12
2018-12-02T01:37:15.898Z,21.11
2018-12-02T01:39:43.522Z,21.10
2018-12-02T01:42:11.169Z,21.10
2018-12-02T01:44:38.798Z,21.14
2018-12-02T01:47:06.436Z,21.10
2018-12-02T01:49:34.077Z,21.08
2018-12-02T01:52:01.708Z,21.11
2018-12-02T01:54:29.346Z,21.10
2018-12-02T01:56:57.049Z,21.11
2018-12-02T01:59:24.744Z,21.06
2018-12-02T02:01:52.375Z,21.09
2018-12-02T02:04:20.001Z,21.07
2018-12-02T02:06:47.713Z,21.02
2018-12-02T02:09:15.401Z,21.08
2018-12-02T02:11:43.048Z,21.08
2018-12-02T02:14:10.670Z,21.05
2018-12-02T02:16:38.295Z,21.04
2018-12-02T02:19:05.971Z,21.02
2018-12-02T02:21:33.611Z,21.02
2018-12-02T02:24:01.235Z,21.08
2018-12-02T02:26:28.851Z,21.07
2018-12-02T02:28:56.515Z,21.04
2018-12-02T02:31:24.169Z,21.07
2018-12-02T02:33:51.796Z,21.03
2018-12-02T02:36:19.439Z,21.00
2018-12-02T02:38:47.076Z,21.00
2018-12-02T02:41:14.704Z,21.03
2018-12-02T02:43:42.343Z,21.03
2018-12-02T02:46:09.977Z,21.02
2018-12-02T02:48:37.637Z,21.00
2018-12-02T02:51:05.503Z,20.97
2018-12-02T02:53:33.141Z,21.02
2018-12-02T02:56:00.813Z,21.00
2018-12-02T02:58:28.462Z,21.00
2018-12-02T03:00:56.145Z,21.03
2018-12-02T03:03:23.769Z,21.06
2018-12-02T03:05:51.486Z,21.06
2018-12-02T03:08:19.116Z,21.04
2018-12-02T03:10:46.750Z,21.01
2018-12-02T03:13:14.384Z,20.99
2018-12-02T03:15:42.011Z,20.96
2018-12-02T03:18:09.640Z,20.97
2018-12-02T03:20:37.263Z,20.98
2018-12-02T03:23:04.899Z,20.97
2018-12-02T03:25:32.559Z,20.96
2018-12-02T03:28:00.187Z,20.95
2018-12-02T03:30:27.813Z,20.96
2018-12-02T03:32:55.478Z,20.91
2018-12-02T03:35:24.671Z,20.93
2018-12-02T03:37:52.475Z,20.99
2018-12-02T03:40:20.679Z,20.96
2018-12-02T03:42:48.551Z,20.96
2018-12-02T03:45:16.731Z,20.92
2018-12-02T03:47:44.393Z,20.94
2018-12-02T03:50:17.495Z,20.92
2018-12-02T03:52:41.229Z,20.93
2018-12-02T03:55:09.048Z,20.96
2018-12-02T03:57:36.744Z,20.51
2018-12-02T04:00:06.388Z,20.92
2018-12-02T04:02:34.028Z,20.92
2018-12-02T04:05:01.662Z,20.91
2018-12-02T04:07:29.284Z,20.95
2018-12-02T04:09:56.944Z,20.92
2018-12-02T04:12:24.603Z,20.88
2018-12-02T04:14:52.232Z,20.93
2018-12-02T04:17:19.871Z,20.94
2018-12-02T04:19:47.495Z,20.92
2018-12-02T04:22:15.138Z,20.89
2018-12-02T04:24:42.775Z,20.91
2018-12-02T04:27:10.403Z,20.91
2018-12-02T04:29:38.030Z,20.89
2018-12-02T04:32:05.995Z,20.93
2018-12-02T04:34:33.623Z,20.88
2018-12-02T04:37:01.252Z,20.89
2018-12-02T04:39:28.881Z,20.92
2018-12-02T04:41:56.537Z,20.96
2018-12-02T04:44:24.189Z,20.93
2018-12-02T04:46:51.881Z,20.85
2018-12-02T04:49:19.503Z,20.94
2018-12-02T04:51:47.208Z,20.92
2018-12-02T04:54:14.875Z,20.91
2018-12-02T04:56:42.501Z,20.88
2018-12-02T04:59:10.142Z,20.80
2018-12-02T05:01:37.772Z,20.89
2018-12-02T05:04:05.472Z,20.86
2018-12-02T05:06:33.124Z,20.89
2018-12-02T05:09:00.752Z,20.90
2018-12-02T05:11:28.376Z,20.84
2018-12-02T05:13:56.010Z,20.82
2018-12-02T05:16:23.644Z,20.82
2018-12-02T05:18:51.292Z,20.80
2018-12-02T05:21:18.921Z,20.85
2018-12-02T05:23:46.541Z,20.86
2018-12-02T05:26:14.176Z,20.87
2018-12-02T05:28:41.864Z,20.85
2018-12-02T05:31:09.490Z,20.80
2018-12-02T05:33:37.118Z,20.79
2018-12-02T05:36:04.994Z,20.80
2018-12-02T05:38:32.618Z,20.79
2018-12-02T05:41:00.239Z,20.80
2018-12-02T05:43:27.877Z,20.77
2018-12-02T05:45:55.506Z,20.84
2018-12-02T05:48:23.135Z,20.84
2018-12-02T05:50:50.802Z,20.85
2018-12-02T05:53:18.435Z,20.77
2018-12-02T05:55:46.064Z,20.83
2018-12-02T05:58:13.688Z,20.80
2018-12-02T06:00:41.299Z,20.76
2018-12-02T06:03:08.920Z,20.80
2018-12-02T06:05:36.584Z,20.82
2018-12-02T06:08:04.259Z,20.82
2018-12-02T06:10:31.890Z,20.80
2018-12-02T06:12:59.545Z,20.71
2018-12-02T06:15:27.180Z,20.70
2018-12-02T06:17:54.790Z,20.70
2018-12-02T06:20:23.082Z,20.69
2018-12-02T06:22:51.319Z,20.66
2018-12-02T06:25:18.981Z,20.67
2018-12-02T06:27:46.710Z,20.66
2018-12-02T06:30:14.890Z,20.65
2018-12-02T06:32:42.567Z,20.71
2018-12-02T06:35:10.863Z,20.73
2018-12-02T06:37:38.486Z,20.74
2018-12-02T06:40:10.113Z,20.77
2018-12-02T06:42:37.836Z,20.76
2018-12-02T06:45:05.787Z,20.74
2018-12-02T06:47:33.419Z,20.69
2018-12-02T06:50:01.055Z,20.71
2018-12-02T06:52:28.683Z,20.72
2018-12-02T06:55:01.500Z,20.71
2018-12-02T06:57:31.605Z,20.69
2018-12-02T07:01:03.153Z,20.68
2018-12-02T07:03:36.638Z,20.73
2018-12-02T07:06:04.284Z,20.73
2018-12-02T07:08:31.899Z,20.67
2018-12-02T07:10:59.525Z,20.69
2018-12-02T07:13:27.183Z,20.71
2018-12-02T07:15:54.864Z,20.69
2018-12-02T07:18:26.468Z,20.70
2018-12-02T07:20:55.699Z,20.71
2018-12-02T07:23:24.690Z,20.72
2018-12-02T07:25:53.849Z,20.73
2018-12-02T07:28:21.476Z,20.73
2018-12-02T07:30:49.099Z,20.69
2018-12-02T07:33:16.724Z,20.65
2018-12-02T07:35:44.354Z,20.70
2018-12-02T07:38:14.244Z,20.74
2018-12-02T07:40:42.015Z,20.69
2018-12-02T07:43:10.308Z,20.69
2018-12-02T07:45:37.944Z,20.69
2018-12-02T07:48:05.758Z,20.71
2018-12-02T07:50:33.464Z,20.68
2018-12-02T07:53:01.145Z,20.67
2018-12-02T07:55:28.816Z,20.70
2018-12-02T07:57:56.487Z,20.65
2018-12-02T08:00:24.385Z,20.63
2018-12-02T08:02:52.432Z,20.64
2018-12-02T08:05:20.157Z,20.64
2018-12-02T08:07:49.310Z,20.64
2018-12-02T08:10:17.499Z,20.61
2018-12-02T08:12:45.543Z,20.65
2018-12-02T08:15:17.195Z,20.62
2018-12-02T08:17:45.344Z,20.72
2018-12-02T08:20:14.066Z,20.62
2018-12-02T08:22:41.988Z,20.60
2018-12-02T08:25:10.371Z,20.61
2018-12-02T08:27:38.019Z,20.60
2018-12-02T08:30:08.925Z,20.69
2018-12-02T08:32:36.632Z,20.65
2018-12-02T08:35:04.320Z,20.63
2018-12-02T08:37:31.982Z,20.24
2018-12-02T08:39:59.704Z,20.61
2018-12-02T08:42:27.336Z,20.60
2018-12-02T08:44:54.966Z,20.61
2018-12-02T08:47:22.601Z,20.26
2018-12-02T08:49:50.233Z,20.65
2018-12-02T08:52:17.927Z,20.63
2018-12-02T08:54:45.564Z,20.65
2018-12-02T08:57:13.216Z,20.67
2018-12-02T08:59:40.885Z,20.64
2018-12-02T09:02:08.529Z,20.69
2018-12-02T09:04:36.176Z,20.68
2018-12-02T09:07:03.824Z,20.63
2018-12-02T09:09:31.467Z,20.62
2018-12-02T09:11:59.094Z,20.64
2018-12-02T09:14:26.724Z,20.61
2018-12-02T09:16:54.471Z,20.65
2018-12-02T09:19:22.124Z,20.65
2018-12-02T09:21:49.752Z,20.65
2018-12-02T09:24:17.445Z,20.60
2018-12-02T09:26:45.099Z,20.65
2018-12-02T09:29:12.733Z,20.65
2018-12-02T09:31:40.422Z,20.70
2018-12-02T09:34:08.083Z,20.63
2018-12-02T09:36:35.744Z,20.69
2018-12-02T09:39:03.493Z,20.68
2018-12-02T09:41:31.157Z,20.61
2018-12-02T09:43:58.822Z,20.70
2018-12-02T09:46:26.516Z,20.68
2018-12-02T09:48:54.269Z,20.66
2018-12-02T09:51:23.039Z,20.63
2018-12-02T09:53:49.616Z,20.59
2018-12-02T09:56:21.447Z,20.59
2018-12-02T09:58:49.297Z,20.58
2018-12-02T10:01:17.157Z,20.56
2018-12-02T10:03:45.016Z,20.57
2018-12-02T10:06:12.958Z,20.55
2018-12-02T10:08:40.835Z,20.62
2018-12-02T10:11:09.715Z,20.62
2018-12-02T10:13:37.601Z,20.59
2018-12-02T10:16:05.452Z,20.60
2018-12-02T10:18:33.356Z,20.64
2018-12-02T10:21:01.195Z,20.60
2018-12-02T10:23:29.065Z,20.59
2018-12-02T10:25:57.002Z,20.58
2018-12-02T10:28:24.954Z,20.60
2018-12-02T10:30:52.750Z,20.59
2018-12-02T10:33:20.650Z,20.58
2018-12-02T10:35:48.572Z,20.62
2018-12-02T10:38:16.613Z,20.55
2018-12-02T10:40:44.503Z,20.56
2018-12-02T10:43:12.454Z,20.55
2018-12-02T10:45:40.333Z,20.58
2018-12-02T10:48:08.970Z,20.59
2018-12-02T10:50:36.712Z,20.56
2018-12-02T10:53:08.216Z,20.55
2018-12-02T10:55:39.476Z,20.60
2018-12-02T10:58:07.920Z,20.53
2018-12-02T11:00:41.014Z,20.57
2018-12-02T11:03:08.656Z,20.54
2018-12-02T11:05:36.406Z,20.56
2018-12-02T11:08:04.171Z,20.61
2018-12-02T11:10:31.981Z,20.60
2018-12-02T11:12:59.842Z,20.58
2018-12-02T11:15:27.748Z,20.59
2018-12-02T11:17:55.420Z,20.58
2018-12-02T11:20:23.087Z,20.60
2018-12-02T11:22:51.605Z,20.55
2018-12-02T11:25:19.325Z,20.54
2018-12-02T11:27:46.967Z,20.53
2018-12-02T11:30:15.331Z,20.51
2018-12-02T11:32:43.532Z,20.57
2018-12-02T11:35:12.158Z,20.58
2018-12-02T11:37:40.268Z,20.56
2018-12-02T11:40:10.094Z,20.50
2018-12-02T11:42:38.309Z,20.49
2018-12-02T11:45:07.841Z,20.51
2018-12-02T11:47:36.103Z,20.53
2018-12-02T11:50:04.434Z,20.55
2018-12-02T11:52:32.543Z,20.51
2018-12-02T11:55:00.629Z,20.50
2018-12-02T11:57:29.006Z,20.55
2018-12-02T11:59:57.401Z,20.52
2018-12-02T12:02:25.482Z,20.47
2018-12-02T12:04:53.523Z,20.51
2018-12-02T12:07:21.970Z,20.52
2018-12-02T12:09:50.602Z,20.53
2018-12-02T12:12:19.161Z,20.51
2018-12-02T12:14:47.398Z,20.52
2018-12-02T12:17:15.274Z,20.37
2018-12-02T12:19:43.241Z,20.52
2018-12-02T12:22:11.692Z,20.55
2018-12-02T12:24:40.177Z,20.49
2018-12-02T12:27:08.515Z,20.44
2018-12-02T12:29:36.487Z,20.57
2018-12-02T12:32:04.407Z,20.55
2018-12-02T12:34:32.631Z,20.54
2018-12-02T12:37:01.431Z,20.51
2018-12-02T12:39:29.769Z,20.49
2018-12-02T12:41:58.099Z,20.47
2018-12-02T12:44:26.149Z,20.58
2018-12-02T12:46:54.034Z,20.55
2018-12-02T12:49:22.110Z,20.59
2018-12-02T12:51:50.465Z,20.52
2018-12-02T12:54:18.847Z,20.46
2018-12-02T12:56:47.035Z,20.52
2018-12-02T12:59:14.929Z,20.53
2018-12-02T13:01:42.819Z,20.54
2018-12-02T13:04:11.058Z,20.56
2018-12-02T13:06:39.373Z,20.51
2018-12-02T13:09:09.054Z,20.56
2018-12-02T13:11:37.398Z,20.52
2018-12-02T13:14:05.714Z,20.52
2018-12-02T13:16:33.610Z,20.55
2018-12-02T13:19:01.729Z,20.56
2018-12-02T13:21:30.083Z,20.55
2018-12-02T13:23:58.356Z,20.58
2018-12-02T13:26:26.544Z,20.58
2018-12-02T13:28:54.448Z,20.53
2018-12-02T13:31:22.575Z,20.57
2018-12-02T13:33:50.944Z,20.56
2018-12-02T13:36:19.294Z,20.46
2018-12-02T13:38:47.522Z,20.55
2018-12-02T13:41:15.733Z,20.55
2018-12-02T13:43:43.650Z,20.57
2018-12-02T13:46:11.763Z,20.52
2018-12-02T13:48:40.128Z,20.50
2018-12-02T13:51:08.477Z,20.52
2018-12-02T13:53:41.631Z,20.54
2018-12-02T13:56:09.981Z,20.51
2018-12-02T13:58:38.298Z,20.51
2018-12-02T14:01:06.378Z,20.54
2018-12-02T14:03:34.324Z,20.48
2018-12-02T14:06:02.269Z,20.45
2018-12-02T14:08:30.101Z,20.46
2018-12-02T14:10:58.017Z,20.49
2018-12-02T14:13:27.067Z,20.47
2018-12-02T14:15:59.015Z,20.36
2018-12-02T14:18:33.303Z,20.42
2018-12-02T14:21:01.297Z,20.49
2018-12-02T14:23:29.260Z,20.50
2018-12-02T14:25:58.375Z,19.77
2018-12-02T14:28:27.903Z,20.51
2018-12-02T14:30:55.886Z,20.48
2018-12-02T14:33:23.916Z,20.49
2018-12-02T14:35:51.997Z,20.47
2018-12-02T14:38:19.848Z,20.47
2018-12-02T14:40:47.648Z,20.47
2018-12-02T14:43:15.555Z,20.47
2018-12-02T14:45:43.482Z,20.46
2018-12-02T14:48:11.334Z,20.48
2018-12-02T14:50:39.151Z,20.44
2018-12-02T14:53:07.041Z,20.49
2018-12-02T14:55:34.907Z,20.49
2018-12-02T14:58:02.757Z,20.48
2018-12-02T15:00:30.699Z,20.49
2018-12-02T15:02:58.500Z,20.49
2018-12-02T15:05:26.339Z,20.48
2018-12-02T15:07:54.256Z,20.49
2018-12-02T15:10:22.137Z,20.49
2018-12-02T15:12:50.029Z,20.46
2018-12-02T15:15:18.169Z,20.45
2018-12-02T15:17:46.815Z,20.46
2018-12-02T15:20:18.358Z,20.45
2018-12-02T15:22:46.195Z,20.46
2018-12-02T15:25:14.400Z,20.44
2018-12-02T15:27:42.621Z,20.49
2018-12-02T15:30:15.839Z,20.47
2018-12-02T15:32:44.325Z,20.52
2018-12-02T15:35:12.235Z,20.53
2018-12-02T15:37:40.046Z,20.53
2018-12-02T15:40:08.870Z,20.50
2018-12-02T15:42:36.817Z,20.52
2018-12-02T15:45:04.977Z,20.50
2018-12-02T15:47:32.849Z,20.47
2018-12-02T15:50:00.740Z,20.46
2018-12-02T15:52:28.568Z,20.50
2018-12-02T15:54:56.373Z,20.48
2018-12-02T15:57:24.205Z,20.53
2018-12-02T15:59:52.098Z,19.90
2018-12-02T16:02:19.905Z,20.40
2018-12-02T16:04:47.710Z,20.38
2018-12-02T16:07:15.531Z,20.51
2018-12-02T16:09:43.390Z,20.46
2018-12-02T16:12:11.195Z,20.50
2018-12-02T16:14:39.105Z,20.51
2018-12-02T16:17:06.940Z,20.51
2018-12-02T16:19:34.712Z,20.44
2018-12-02T16:22:02.574Z,20.47
2018-12-02T16:24:30.414Z,20.41
2018-12-02T16:26:58.187Z,20.43
2018-12-02T16:29:26.176Z,20.41
2018-12-02T16:31:54.042Z,20.41
2018-12-02T16:34:21.887Z,20.52
2018-12-02T16:36:49.829Z,20.48
2018-12-02T16:39:17.649Z,20.46
2018-12-02T16:41:45.568Z,20.46
2018-12-02T16:44:13.369Z,20.48
2018-12-02T16:46:41.142Z,20.48
2018-12-02T16:49:08.970Z,20.50
2018-12-02T16:51:36.773Z,20.52
2018-12-02T16:54:04.601Z,20.56
2018-12-02T16:56:33.139Z,20.57
2018-12-02T16:59:22.898Z,20.59
2018-12-02T17:01:51.866Z,20.59
2018-12-02T17:04:20.029Z,20.54
2018-12-02T17:06:47.862Z,20.58
2018-12-02T17:09:15.685Z,20.61
2018-12-02T17:11:43.657Z,20.64
2018-12-02T17:14:11.432Z,20.61
2018-12-02T17:16:39.304Z,20.61
2018-12-02T17:19:07.677Z,20.63
2018-12-02T17:21:35.348Z,20.56
2018-12-02T17:24:03.000Z,20.55
2018-12-02T17:26:30.756Z,20.47
2018-12-02T17:28:58.523Z,20.55
2018-12-02T17:31:27.323Z,20.57
2018-12-02T17:33:55.072Z,20.51
2018-12-02T17:36:22.863Z,20.52
2018-12-02T17:38:51.659Z,20.52
2018-12-02T17:41:19.460Z,20.57
2018-12-02T17:43:47.278Z,20.56
2018-12-02T17:46:15.191Z,20.52
2018-12-02T17:48:43.009Z,20.55
2018-12-02T17:51:10.644Z,20.58
2018-12-02T17:53:39.099Z,20.55
2018-12-02T17:56:06.988Z,20.51
2018-12-02T17:58:34.863Z,20.44
2018-12-02T18:01:02.734Z,20.49
2018-12-02T18:03:31.219Z,20.53
2018-12-02T18:05:59.045Z,20.50
2018-12-02T18:08:26.878Z,20.50
2018-12-02T18:10:54.702Z,20.49
2018-12-02T18:13:22.454Z,20.53
2018-12-02T18:15:50.271Z,20.51
2018-12-02T18:18:18.103Z,20.50
2018-12-02T18:20:45.912Z,20.46
2018-12-02T18:23:13.768Z,20.51
2018-12-02T18:25:41.576Z,20.52
2018-12-02T18:28:09.396Z,20.50
2018-12-02T18:30:37.261Z,20.50
2018-12-02T18:33:05.197Z,20.52
2018-12-02T18:35:35.027Z,20.48
2018-12-02T18:38:05.908Z,20.47
2018-12-02T18:40:33.980Z,20.49
2018-12-02T18:43:01.783Z,20.48
2018-12-02T18:45:29.962Z,20.50
2018-12-02T18:47:57.845Z,20.52
2018-12-02T18:50:25.732Z,20.52
2018-12-02T18:52:53.544Z,20.53
2018-12-02T18:55:21.350Z,20.52
2018-12-02T18:57:49.217Z,20.53
2018-12-02T19:00:22.201Z,20.55
2018-12-02T19:02:50.763Z,20.54
2018-12-02T19:05:18.635Z,20.52
2018-12-02T19:07:46.812Z,20.51
2018-12-02T19:10:15.450Z,20.51
2018-12-02T19:12:43.304Z,20.55
2018-12-02T19:15:11.745Z,20.54
2018-12-02T19:17:39.544Z,20.51
2018-12-02T19:20:10.438Z,20.54
2018-12-02T19:22:38.237Z,20.50
2018-12-02T19:25:06.799Z,20.56
2018-12-02T19:27:34.698Z,20.52
2018-12-02T19:30:02.530Z,20.49
2018-12-02T19:32:30.378Z,20.56
2018-12-02T19:34:58.285Z,20.46
2018-12-02T19:37:26.284Z,20.48
2018-12-02T19:39:54.120Z,20.51
2018-12-02T19:42:22.000Z,20.57
2018-12-02T19:44:49.841Z,20.56
2018-12-02T19:47:17.717Z,20.62
2018-12-02T19:49:45.491Z,20.63
2018-12-02T19:52:13.277Z,20.62
2018-12-02T19:54:41.012Z,20.55
2018-12-02T19:57:08.870Z,20.53
2018-12-02T19:59:36.662Z,20.48
2018-12-02T20:02:04.461Z,20.56
2018-12-02T20:04:32.284Z,20.57
2018-12-02T20:07:00.136Z,20.52
2018-12-02T20:09:28.036Z,20.49
2018-12-02T20:11:55.878Z,20.50
2018-12-02T20:14:23.752Z,20.55
2018-12-02T20:16:51.599Z,20.48
2018-12-02T20:19:24.658Z,20.45
2018-12-02T20:21:52.373Z,20.47
2018-12-02T20:24:25.419Z,20.45
2018-12-02T20:26:53.234Z,20.51
2018-12-02T20:29:21.069Z,19.86
2018-12-02T20:31:48.866Z,20.49
2018-12-02T20:34:16.635Z,20.50
2018-12-02T20:36:44.482Z,20.49
2018-12-02T20:39:12.320Z,20.48
2018-12-02T20:41:39.965Z,20.54
2018-12-02T20:44:07.799Z,20.52
2018-12-02T20:46:35.653Z,20.51
2018-12-02T20:49:03.347Z,20.54
2018-12-02T20:51:31.164Z,20.53
2018-12-02T20:53:58.970Z,20.53
2018-12-02T20:56:26.791Z,20.56
2018-12-02T20:58:54.676Z,20.53
2018-12-02T21:01:22.524Z,20.52
2018-12-02T21:03:50.316Z,20.52
2018-12-02T21:06:18.874Z,20.54
2018-12-02T21:08:46.647Z,20.57
2018-12-02T21:11:14.513Z,20.58
2018-12-02T21:13:42.314Z,20.52
2018-12-02T21:16:10.189Z,20.52
2018-12-02T21:18:38.007Z,20.53
2018-12-02T21:21:05.909Z,20.56
2018-12-02T21:23:33.749Z,20.55
2018-12-02T21:26:01.756Z,20.47
2018-12-02T21:28:29.804Z,20.47
2018-12-02T21:30:57.668Z,20.44
2018-12-02T21:33:25.480Z,20.45
2018-12-02T21:35:53.344Z,20.51
2018-12-02T21:38:21.192Z,20.50
2018-12-02T21:40:49.022Z,20.48
2018-12-02T21:43:16.889Z,20.45
2018-12-02T21:45:44.686Z,20.47
2018-12-02T21:48:13.336Z,20.47
2018-12-02T21:50:41.155Z,20.48
2018-12-02T21:53:09.062Z,20.47
2018-12-02T21:55:36.780Z,20.48
2018-12-02T21:58:15.894Z,20.51
2018-12-02T22:00:44.787Z,20.50
2018-12-02T22:03:13.169Z,20.51
2018-12-02T22:05:40.979Z,20.45
2018-12-02T22:08:08.921Z,20.47
2018-12-02T22:10:37.798Z,20.46
2018-12-02T22:13:07.633Z,20.50
2018-12-02T22:15:36.574Z,20.49
2018-12-02T22:18:04.446Z,20.50
2018-12-02T22:20:32.361Z,20.50
2018-12-02T22:23:01.177Z,20.51
2018-12-02T22:25:29.010Z,20.46
2018-12-02T22:27:56.932Z,20.47
2018-12-02T22:30:25.310Z,20.50
2018-12-02T22:32:53.184Z,18.25
2018-12-02T22:35:21.039Z,20.51
2018-12-02T22:37:48.901Z,20.46
2018-12-02T22:40:29.327Z,20.51
2018-12-02T22:42:57.154Z,20.53
2018-12-02T22:45:25.691Z,20.54
2018-12-02T22:47:53.542Z,20.49
2018-12-02T22:50:21.918Z,20.50
2018-12-02T22:52:54.242Z,20.47
2018-12-02T22:55:22.165Z,20.49
2018-12-02T22:57:50.139Z,20.51
2018-12-02T23:01:16.335Z,20.58
2018-12-02T23:06:39.938Z,20.47
2018-12-02T23:11:44.647Z,20.47
2018-12-02T23:17:22.680Z,20.46
2018-12-02T23:20:10.199Z,20.49
2018-12-02T23:25:18.122Z,20.46
2018-12-02T23:30:54.925Z,20.52
2018-12-02T23:36:13.210Z,20.49
2018-12-02T23:41:50.087Z,20.49
2018-12-02T23:47:08.373Z,20.22
2018-12-02T23:49:37.110Z,20.50
2018-12-02T23:55:00.286Z,20.49
